Time;durP1;ratioP1;P1;durP2;ratioP2;P2;SDS_P1;SDS_P2;PMS_P1;PMS_P2;Temp;Humidity;BMP_temperature;BMP_pressure;BME280_temperature;BME280_humidity;BME280_pressure;Samples;Min_cycle;Max_cycle;Signal;HPM_P1;HPM_P2
2021/01/29 00:01:55;;;;;;;19.20;13.25;;;1.60;99.90;;;;;;4858806;29;20048;-94
2021/01/29 00:04:22;;;;;;;18.70;11.93;;;1.50;99.90;;;;;;4858896;29;20049;-94
2021/01/29 00:06:48;;;;;;;23.05;14.65;;;1.60;99.90;;;;;;4842624;29;20144;-96
2021/01/29 00:09:14;;;;;;;21.73;14.23;;;1.60;99.90;;;;;;4859373;29;20049;-96
2021/01/29 00:11:40;;;;;;;22.65;14.35;;;1.60;99.90;;;;;;4859482;29;20041;-94
2021/01/29 00:14:05;;;;;;;24.75;13.75;;;1.60;99.90;;;;;;4842441;29;20500;-95
2021/01/29 00:16:31;;;;;;;19.50;12.38;;;1.50;99.90;;;;;;4843629;29;20065;-93
2021/01/29 00:18:57;;;;;;;19.60;12.25;;;1.60;99.90;;;;;;4818740;29;20046;-95
2021/01/29 00:21:23;;;;;;;23.27;12.73;;;1.50;99.90;;;;;;4858360;29;20124;-92
2021/01/29 00:23:48;;;;;;;21.33;12.93;;;1.50;99.90;;;;;;4842455;29;20468;-94
2021/01/29 00:26:14;;;;;;;21.85;12.68;;;1.50;99.90;;;;;;4858683;29;20106;-92
2021/01/29 00:28:40;;;;;;;19.20;11.18;;;1.40;99.90;;;;;;4862784;29;20483;-96
2021/01/29 00:31:06;;;;;;;20.33;12.40;;;1.50;99.90;;;;;;4844489;29;20071;-92
2021/01/29 00:33:32;;;;;;;20.05;11.43;;;1.50;99.90;;;;;;4842607;29;20049;-96
2021/01/29 00:35:58;;;;;;;21.63;11.85;;;1.40;99.90;;;;;;4841817;29;20046;-95
2021/01/29 00:38:24;;;;;;;20.08;12.27;;;1.40;99.90;;;;;;4838603;29;20051;-96
2021/01/29 00:40:50;;;;;;;19.15;11.88;;;1.40;99.90;;;;;;4862473;29;20041;-93
2021/01/29 00:43:15;;;;;;;20.55;11.60;;;1.40;99.90;;;;;;4846638;29;20076;-96
2021/01/29 00:45:43;;;;;;;15.95;11.35;;;1.40;99.90;;;;;;4863000;29;20482;-96
2021/01/29 00:48:09;;;;;;;19.17;10.40;;;1.40;99.90;;;;;;4854169;29;20153;-96
2021/01/29 00:50:36;;;;;;;21.63;11.18;;;1.40;99.90;;;;;;4860911;29;20128;-94
2021/01/29 00:53:03;;;;;;;16.85;11.07;;;1.50;99.90;;;;;;4861588;29;20083;-96
2021/01/29 00:55:29;;;;;;;16.60;9.25;;;1.40;99.90;;;;;;4862658;29;20069;-96
2021/01/29 00:57:55;;;;;;;14.80;10.52;;;1.40;99.90;;;;;;4859748;29;20073;-92
2021/01/29 01:00:21;;;;;;;16.15;11.05;;;1.40;99.90;;;;;;4856231;29;20132;-95
2021/01/29 01:02:47;;;;;;;14.38;9.02;;;1.40;99.90;;;;;;4839048;29;20065;-89
2021/01/29 01:05:16;;;;;;;16.20;10.30;;;1.40;99.90;;;;;;4858145;29;20046;-95
2021/01/29 01:07:41;;;;;;;14.65;9.50;;;1.40;99.90;;;;;;4829684;29;20516;-96
2021/01/29 01:10:08;;;;;;;14.43;9.00;;;1.40;99.90;;;;;;4841459;29;20184;-95
2021/01/29 01:12:34;;;;;;;14.73;9.57;;;1.40;99.90;;;;;;4858893;29;20056;-95
2021/01/29 01:15:01;;;;;;;16.90;9.60;;;1.40;99.90;;;;;;4834265;29;20411;-96
2021/01/29 01:17:27;;;;;;;14.57;9.48;;;1.40;99.90;;;;;;4842213;29;20060;-93
2021/01/29 01:19:53;;;;;;;19.88;9.65;;;1.40;99.90;;;;;;4857400;29;20068;-94
2021/01/29 01:22:18;;;;;;;16.20;9.80;;;1.30;99.90;;;;;;4857911;29;20053;-93
2021/01/29 01:24:44;;;;;;;13.25;8.05;;;1.40;99.90;;;;;;4837560;29;20544;-94
2021/01/29 01:27:13;;;;;;;13.05;9.02;;;1.30;99.90;;;;;;4840589;29;20624;-96
2021/01/29 01:29:38;;;;;;;18.77;9.30;;;1.30;99.90;;;;;;4856906;29;20109;-92
2021/01/29 01:32:05;;;;;;;16.05;8.40;;;1.30;99.90;;;;;;4856905;29;20041;-95
2021/01/29 01:34:32;;;;;;;15.75;9.30;;;1.30;99.90;;;;;;4836014;29;20050;-94
2021/01/29 01:36:59;;;;;;;13.75;8.77;;;1.30;99.90;;;;;;4841082;29;20516;-96
2021/01/29 01:39:25;;;;;;;16.83;9.55;;;1.30;99.90;;;;;;4859155;29;20058;-96
2021/01/29 01:41:52;;;;;;;14.23;9.45;;;1.30;99.90;;;;;;4842354;29;20400;-88
2021/01/29 01:44:34;;;;;;;14.52;10.07;;;1.30;99.90;;;;;;4859425;29;20050;-96
2021/01/29 01:47:17;;;;;;;10.57;7.35;;;1.30;99.90;;;;;;4857858;29;20045;-95
2021/01/29 01:49:44;;;;;;;16.10;8.18;;;1.30;99.90;;;;;;4856649;29;20655;-94
2021/01/29 01:52:21;;;;;;;19.27;10.02;;;1.30;99.90;;;;;;4838090;29;20084;-92
2021/01/29 01:55:13;;;;;;;23.95;10.00;;;1.30;99.90;;;;;;4857018;29;20054;-95
2021/01/29 01:57:42;;;;;;;21.90;9.70;;;1.30;99.90;;;;;;4845511;29;20050;-92
2021/01/29 02:00:15;;;;;;;17.00;10.02;;;1.30;99.90;;;;;;4857524;29;20126;-94
2021/01/29 02:02:46;;;;;;;17.90;9.63;;;1.30;99.90;;;;;;4838442;29;20488;-95
2021/01/29 02:05:18;;;;;;;;;;;1.30;99.90;;;;;;4857877;29;20235;-96
2021/01/29 02:07:50;;;;;;;18.27;9.43;;;1.30;99.90;;;;;;4848890;29;19924;-96
2021/01/29 02:10:16;;;;;;;22.60;10.32;;;1.30;99.90;;;;;;4856201;29;20075;-94
2021/01/29 02:12:42;;;;;;;13.55;8.98;;;1.30;99.90;;;;;;4841675;29;20048;-95
2021/01/29 02:15:16;;;;;;;15.63;9.10;;;1.30;99.90;;;;;;4840956;29;20050;-93
2021/01/29 02:17:57;;;;;;;10.68;7.82;;;1.20;99.90;;;;;;4857902;29;20042;-95
2021/01/29 02:20:26;;;;;;;16.15;9.77;;;1.20;99.90;;;;;;4857235;29;20136;-93
2021/01/29 02:23:10;;;;;;;18.45;10.15;;;1.20;99.90;;;;;;4852762;29;20512;-94
2021/01/29 02:25:45;;;;;;;15.80;9.35;;;1.20;99.90;;;;;;4857684;29;20106;-95
2021/01/29 02:28:32;;;;;;;12.82;8.65;;;1.20;99.90;;;;;;4848395;29;20053;-92
2021/01/29 02:31:32;;;;;;;18.23;10.10;;;1.10;99.90;;;;;;4856578;29;20045;-89
2021/01/29 02:34:51;;;;;;;15.30;9.77;;;1.20;99.90;;;;;;4848439;29;20079;-90
2021/01/29 02:37:35;;;;;;;18.10;9.18;;;1.10;99.90;;;;;;4855512;29;20101;-95
2021/01/29 02:40:21;;;;;;;9.70;6.45;;;1.20;99.90;;;;;;4855437;29;20049;-94
2021/01/29 02:43:02;;;;;;;13.90;9.45;;;1.10;99.90;;;;;;4857285;29;20056;-91
2021/01/29 02:45:39;;;;;;;15.80;9.43;;;1.10;99.90;;;;;;4857757;29;20042;-95
2021/01/29 02:48:33;;;;;;;17.98;10.20;;;1.10;99.90;;;;;;4856692;29;20052;-94
2021/01/29 02:51:02;;;;;;;14.73;10.00;;;1.20;99.90;;;;;;4846736;29;20041;-90
2021/01/29 02:53:37;;;;;;;16.90;9.43;;;1.10;99.90;;;;;;4854701;29;20050;-93
2021/01/29 02:56:17;;;;;;;12.80;6.72;;;1.20;99.90;;;;;;4858227;29;20566;-92
2021/01/29 02:59:10;;;;;;;17.58;7.65;;;1.20;99.90;;;;;;4860627;29;20049;-91
2021/01/29 03:01:43;;;;;;;14.60;10.02;;;1.10;99.90;;;;;;4860360;29;20057;-93
2021/01/29 03:04:26;;;;;;;15.63;9.52;;;1.20;99.90;;;;;;4859894;29;20049;-91
2021/01/29 03:07:05;;;;;;;14.07;8.20;;;1.10;99.90;;;;;;4857076;29;20068;-89
2021/01/29 03:09:38;;;;;;;11.00;7.28;;;1.10;99.90;;;;;;4860750;29;20101;-90
2021/01/29 03:12:14;;;;;;;12.88;8.93;;;1.20;99.90;;;;;;4843480;29;20076;-93
2021/01/29 03:14:43;;;;;;;15.38;9.38;;;1.10;99.90;;;;;;4847979;29;20045;-93
2021/01/29 03:17:20;;;;;;;8.50;5.95;;;1.20;99.90;;;;;;4842883;29;20508;-96
2021/01/29 03:20:07;;;;;;;16.05;9.68;;;1.20;99.90;;;;;;4858064;29;20041;-96
2021/01/29 03:22:43;;;;;;;16.05;8.13;;;1.20;99.90;;;;;;4859991;29;20049;-96
2021/01/29 03:25:16;;;;;;;14.23;8.43;;;1.20;99.90;;;;;;4843296;29;20041;-96
2021/01/29 03:27:49;;;;;;;11.27;7.28;;;1.10;99.90;;;;;;4860181;29;20068;-96
2021/01/29 03:30:29;;;;;;;17.75;9.90;;;1.10;99.90;;;;;;4858514;29;20491;-93
2021/01/29 03:32:58;;;;;;;13.07;8.43;;;1.20;99.90;;;;;;4860169;29;20078;-91
2021/01/29 03:35:39;;;;;;;11.80;8.70;;;1.10;99.90;;;;;;4860057;29;20069;-95
2021/01/29 03:38:19;;;;;;;13.98;8.13;;;1.10;99.90;;;;;;4842916;29;20129;-95
2021/01/29 03:40:49;;;;;;;;;;;1.10;99.90;;;;;;4859044;29;20193;-94
2021/01/29 03:43:47;;;;;;;15.23;7.70;;;1.10;99.90;;;;;;4860184;29;19931;-96
2021/01/29 03:46:24;;;;;;;20.17;9.57;;;1.10;99.90;;;;;;4844865;29;20042;-94
2021/01/29 03:48:59;;;;;;;23.55;10.15;;;1.10;99.90;;;;;;4863004;29;20074;-95
2021/01/29 03:51:50;;;;;;;16.95;8.55;;;1.10;99.90;;;;;;4852232;29;20046;-95
2021/01/29 03:54:37;;;;;;;16.55;10.00;;;1.10;99.90;;;;;;4854861;29;20053;-95
2021/01/29 03:57:27;;;;;;;18.25;9.93;;;1.10;99.90;;;;;;4859404;29;20074;-89
2021/01/29 04:00:13;;;;;;;16.38;9.98;;;1.20;99.90;;;;;;4862704;29;20045;-94
2021/01/29 04:03:01;;;;;;;20.63;10.35;;;1.10;99.90;;;;;;4860617;29;20052;-91
2021/01/29 04:05:33;;;;;;;20.23;10.40;;;1.10;99.90;;;;;;4859453;29;20065;-94
2021/01/29 04:08:34;;;;;;;18.45;11.20;;;1.10;99.90;;;;;;4850633;29;20049;-92
2021/01/29 04:11:01;;;;;;;18.30;9.55;;;1.10;99.90;;;;;;4827778;29;20411;-93
2021/01/29 04:13:51;;;;;;;21.73;9.02;;;1.00;99.90;;;;;;4842874;29;20060;-91
2021/01/29 04:16:23;;;;;;;19.45;9.48;;;1.10;99.90;;;;;;4837249;29;20120;-94
2021/01/29 04:18:53;;;;;;;18.85;11.82;;;1.10;99.90;;;;;;4852900;29;20049;-92
2021/01/29 04:21:50;;;;;;;21.25;11.02;;;1.00;99.90;;;;;;4841431;29;20045;-88
2021/01/29 04:24:24;;;;;;;24.25;12.45;;;1.00;99.90;;;;;;4857795;29;20052;-88
2021/01/29 04:27:05;;;;;;;15.13;9.40;;;1.00;99.90;;;;;;4856846;29;20065;-88
2021/01/29 04:29:40;;;;;;;30.10;11.75;;;1.00;99.90;;;;;;4856995;29;20052;-89
2021/01/29 04:32:12;;;;;;;22.80;10.25;;;0.90;99.90;;;;;;4853043;29;20048;-88
2021/01/29 04:34:42;;;;;;;17.65;10.02;;;0.90;99.90;;;;;;4855698;29;20093;-88
2021/01/29 04:37:15;;;;;;;23.50;12.75;;;1.00;99.90;;;;;;4858585;29;20045;-88
2021/01/29 04:39:47;;;;;;;17.27;10.40;;;1.00;99.90;;;;;;4858097;29;20045;-89
2021/01/29 04:42:43;;;;;;;26.25;12.88;;;0.90;99.90;;;;;;4857248;29;20053;-88
2021/01/29 04:45:32;;;;;;;23.00;10.73;;;0.90;99.90;;;;;;4841001;29;20053;-89
2021/01/29 04:48:01;;;;;;;21.88;11.23;;;0.90;99.90;;;;;;4856124;29;20057;-89
2021/01/29 04:50:43;;;;;;;28.40;12.73;;;0.90;99.90;;;;;;4857112;29;20153;-89
2021/01/29 04:53:34;;;;;;;26.90;13.95;;;0.90;99.90;;;;;;4857660;29;20052;-91
2021/01/29 04:56:23;;;;;;;34.42;15.32;;;0.90;99.90;;;;;;4850448;29;20141;-88
2021/01/29 04:59:16;;;;;;;32.40;12.00;;;0.90;99.90;;;;;;4839935;29;20588;-88
2021/01/29 05:01:52;;;;;;;31.33;12.57;;;1.00;99.90;;;;;;4849375;29;20050;-89
2021/01/29 05:04:56;;;;;;;27.73;12.75;;;1.00;99.90;;;;;;4854164;29;20057;-89
2021/01/29 05:07:37;;;;;;;23.08;12.98;;;1.00;99.90;;;;;;4844965;29;20045;-88
2021/01/29 05:10:34;;;;;;;18.85;11.45;;;0.90;99.90;;;;;;4841360;29;20400;-89
2021/01/29 05:13:34;;;;;;;22.65;12.10;;;0.90;99.90;;;;;;4858026;29;20128;-88
2021/01/29 05:16:03;;;;;;;29.75;14.15;;;0.90;99.90;;;;;;4844716;29;20045;-89
2021/01/29 05:18:43;;;;;;;33.63;14.55;;;0.90;99.90;;;;;;4832508;29;20136;-89
2021/01/29 05:21:32;;;;;;;;;;;0.90;99.90;;;;;;4858060;29;20104;-90
2021/01/29 05:24:20;;;;;;;18.48;9.93;;;1.00;99.90;;;;;;4831535;29;19928;-88
2021/01/29 05:27:07;;;;;;;17.67;10.43;;;1.00;99.90;;;;;;4847029;29;20058;-88
2021/01/29 05:30:24;;;;;;;17.35;10.52;;;0.90;99.90;;;;;;4858085;29;20075;-89
2021/01/29 05:33:09;;;;;;;25.08;13.45;;;0.90;99.90;;;;;;4806486;29;20169;-88
2021/01/29 05:36:08;;;;;;;28.70;13.73;;;1.00;99.90;;;;;;4803516;29;20050;-89
2021/01/29 05:39:06;;;;;;;23.27;13.10;;;1.00;99.90;;;;;;4853800;29;20050;-89
2021/01/29 05:41:56;;;;;;;19.63;10.90;;;1.00;99.90;;;;;;4850928;29;20056;-88
2021/01/29 05:44:53;;;;;;;25.48;13.90;;;1.00;99.90;;;;;;4849628;29;20050;-89
2021/01/29 05:47:53;;;;;;;21.52;11.50;;;0.90;99.90;;;;;;4830823;29;20061;-89
2021/01/29 05:50:36;;;;;;;19.33;11.65;;;1.00;99.90;;;;;;4854534;29;20092;-89
2021/01/29 05:53:37;;;;;;;30.58;14.57;;;1.00;99.90;;;;;;4857416;29;20544;-90
2021/01/29 05:56:21;;;;;;;20.10;12.57;;;1.00;99.90;;;;;;4840744;29;20504;-90
2021/01/29 05:59:00;;;;;;;26.52;14.02;;;1.00;99.90;;;;;;4854887;29;20049;-88
2021/01/29 06:02:04;;;;;;;23.23;12.43;;;1.00;99.90;;;;;;4850884;29;20048;-88
2021/01/29 06:05:00;;;;;;;18.00;11.80;;;1.00;99.90;;;;;;4809347;29;20065;-87
2021/01/29 06:07:31;;;;;;;27.35;14.10;;;1.00;99.90;;;;;;4828187;29;20148;-88
2021/01/29 06:10:23;;;;;;;28.70;15.18;;;1.00;99.90;;;;;;4857067;29;20111;-87
2021/01/29 06:13:06;;;;;;;25.20;14.70;;;1.00;99.90;;;;;;4840557;29;20054;-89
2021/01/29 06:15:47;;;;;;;26.42;15.85;;;1.00;99.90;;;;;;4857212;29;20096;-89
2021/01/29 06:18:28;;;;;;;;;;;1.00;99.90;;;;;;4846560;29;20389;-91
2021/01/29 06:21:04;;;;;;;;;;;1.00;99.90;;;;;;4856416;29;20027;-88
2021/01/29 06:23:48;;;;;;;17.80;11.25;;;1.00;99.90;;;;;;4840014;29;19928;-87
2021/01/29 06:26:42;;;;;;;22.38;11.60;;;1.00;99.90;;;;;;4828580;29;20493;-90
2021/01/29 06:29:21;;;;;;;21.10;12.00;;;1.00;99.90;;;;;;4857184;29;20053;-87
2021/01/29 06:32:05;;;;;;;19.00;11.95;;;1.00;99.90;;;;;;4860701;29;20084;-87
2021/01/29 06:34:58;;;;;;;16.83;8.73;;;1.00;99.90;;;;;;4859772;29;20099;-89
2021/01/29 06:37:48;;;;;;;24.75;13.20;;;1.00;99.90;;;;;;4859762;29;20056;-88
2021/01/29 06:40:38;;;;;;;17.05;8.02;;;1.00;99.90;;;;;;4848557;29;20054;-90
2021/01/29 06:43:34;;;;;;;22.50;11.43;;;1.00;99.90;;;;;;4844105;29;20060;-88
2021/01/29 06:46:25;;;;;;;20.42;11.18;;;1.10;99.90;;;;;;4860273;29;20045;-88
2021/01/29 06:49:06;;;;;;;19.15;11.48;;;1.10;99.90;;;;;;4849082;29;20349;-88
2021/01/29 06:51:47;;;;;;;18.85;11.43;;;1.10;99.90;;;;;;4858866;29;20057;-88
2021/01/29 06:54:35;;;;;;;19.48;12.15;;;1.10;99.90;;;;;;4843555;29;20109;-89
2021/01/29 06:57:08;;;;;;;23.67;12.75;;;1.10;99.90;;;;;;4859852;29;20037;-88
2021/01/29 06:59:46;;;;;;;19.17;10.55;;;1.20;99.90;;;;;;4842967;29;20716;-88
2021/01/29 07:02:27;;;;;;;17.10;10.75;;;1.10;99.90;;;;;;4858764;29;20600;-88
2021/01/29 07:05:30;;;;;;;13.60;9.60;;;1.10;99.90;;;;;;4859408;29;20121;-88
2021/01/29 07:08:13;;;;;;;17.80;10.63;;;1.10;99.90;;;;;;4851746;29;20054;-88
2021/01/29 07:10:45;;;;;;;19.98;11.13;;;1.10;99.90;;;;;;4858447;29;20042;-89
2021/01/29 07:13:36;;;;;;;21.17;11.93;;;1.10;99.90;;;;;;4857742;29;20470;-88
2021/01/29 07:16:26;;;;;;;13.95;7.93;;;1.10;99.90;;;;;;4857376;29;20037;-89
2021/01/29 07:19:22;;;;;;;18.90;11.60;;;1.20;99.90;;;;;;4859616;29;20046;-89
2021/01/29 07:22:17;;;;;;;15.15;10.38;;;1.20;99.90;;;;;;4841212;29;20109;-88
2021/01/29 07:24:50;;;;;;;19.30;11.20;;;1.20;99.90;;;;;;4858535;29;20124;-89
2021/01/29 07:27:44;;;;;;;22.00;10.75;;;1.20;99.90;;;;;;4842212;29;20065;-89
2021/01/29 07:30:27;;;;;;;9.70;5.95;;;1.20;99.90;;;;;;4848185;29;20057;-89
2021/01/29 07:33:23;;;;;;;14.98;9.15;;;1.20;99.90;;;;;;4858525;29;20053;-90
2021/01/29 07:36:05;;;;;;;20.90;10.15;;;1.30;99.90;;;;;;4847462;29;20454;-90
2021/01/29 07:39:05;;;;;;;23.45;10.93;;;1.20;99.90;;;;;;4854987;29;20038;-89
2021/01/29 07:41:40;;;;;;;14.27;9.07;;;1.30;99.90;;;;;;4856962;29;20125;-90
2021/01/29 07:44:43;;;;;;;16.52;8.90;;;1.30;99.90;;;;;;4847317;29;20120;-89
2021/01/29 07:47:35;;;;;;;13.15;8.82;;;1.30;99.90;;;;;;4842442;29;20077;-90
2021/01/29 07:50:22;;;;;;;14.38;8.75;;;1.30;99.90;;;;;;4859035;29;20045;-89
2021/01/29 07:53:03;;;;;;;17.15;9.43;;;1.30;99.90;;;;;;4836772;29;20553;-89
2021/01/29 07:55:31;;;;;;;;;;;1.30;99.90;;;;;;4854637;29;20121;-89
2021/01/29 07:58:16;;;;;;;10.57;6.50;;;1.30;99.90;;;;;;4857062;29;19930;-92
2021/01/29 08:01:03;;;;;;;12.45;8.52;;;1.30;99.90;;;;;;4840699;29;20045;-89
2021/01/29 08:03:56;;;;;;;11.38;7.00;;;1.30;99.90;;;;;;4854275;29;20101;-88
2021/01/29 08:06:24;;;;;;;13.60;8.70;;;1.40;99.90;;;;;;4858481;29;20038;-90
2021/01/29 08:09:20;;;;;;;11.18;7.78;;;1.40;99.90;;;;;;4857240;29;20053;-91
2021/01/29 08:11:52;;;;;;;12.88;7.35;;;1.40;99.90;;;;;;4858386;29;20477;-88
2021/01/29 08:14:25;;;;;;;11.68;7.80;;;1.40;99.90;;;;;;4858861;29;20064;-88
2021/01/29 08:17:21;;;;;;;7.88;6.60;;;1.40;99.90;;;;;;4858825;29;20109;-89
2021/01/29 08:20:35;;;;;;;11.70;8.30;;;1.40;99.90;;;;;;4858329;29;20049;-89
2021/01/29 08:23:49;;;;;;;15.75;8.32;;;1.40;99.90;;;;;;4840843;29;20061;-89
2021/01/29 08:26:33;;;;;;;6.88;5.05;;;1.40;99.90;;;;;;4839767;29;20088;-89
2021/01/29 08:29:37;;;;;;;13.02;7.55;;;1.40;99.90;;;;;;4855795;29;20106;-90
2021/01/29 08:32:41;;;;;;;14.52;8.15;;;1.40;99.90;;;;;;4850306;29;20055;-90
2021/01/29 08:35:17;;;;;;;15.13;9.02;;;1.40;99.90;;;;;;4847336;29;20090;-89
2021/01/29 08:38:20;;;;;;;11.52;7.82;;;1.40;99.90;;;;;;4856564;29;20041;-89
2021/01/29 08:41:25;;;;;;;9.60;6.35;;;1.40;99.90;;;;;;4823697;29;20053;-89
2021/01/29 08:44:24;;;;;;;11.60;7.00;;;1.40;99.90;;;;;;4854777;29;20070;-89
2021/01/29 08:46:58;;;;;;;12.05;6.32;;;1.40;99.90;;;;;;4854951;29;20053;-89
2021/01/29 08:49:58;;;;;;;9.25;6.28;;;1.40;99.90;;;;;;4857655;29;20060;-89
2021/01/29 08:53:01;;;;;;;11.27;7.53;;;1.40;99.90;;;;;;4849998;29;20130;-89
2021/01/29 08:56:01;;;;;;;11.25;6.82;;;1.40;99.90;;;;;;4847168;29;20057;-89
2021/01/29 08:58:38;;;;;;;13.93;9.00;;;1.50;99.90;;;;;;4809164;29;20049;-87
2021/01/29 09:01:11;;;;;;;9.82;6.38;;;1.40;99.90;;;;;;4855680;29;20042;-87
2021/01/29 09:03:43;;;;;;;11.32;6.45;;;1.40;99.90;;;;;;4855732;29;20038;-88
2021/01/29 09:06:26;;;;;;;6.30;5.57;;;1.40;99.90;;;;;;4840356;29;20045;-89
2021/01/29 09:09:00;;;;;;;7.70;6.18;;;1.40;99.90;;;;;;4854905;29;20045;-87
2021/01/29 09:11:45;;;;;;;10.45;7.25;;;1.40;99.90;;;;;;4856372;29;20049;-88
2021/01/29 09:14:26;;;;;;;14.73;7.82;;;1.40;99.90;;;;;;4854875;29;20057;-88
2021/01/29 09:17:04;;;;;;;8.38;6.68;;;1.40;99.90;;;;;;4855762;29;20044;-85
2021/01/29 09:19:33;;;;;;;7.55;5.80;;;1.40;99.90;;;;;;4855250;29;20081;-88
2021/01/29 09:22:32;;;;;;;4.80;4.32;;;1.40;99.90;;;;;;4849761;29;20058;-88
2021/01/29 09:25:29;;;;;;;9.35;5.60;;;1.40;99.90;;;;;;4845050;29;20057;-90
2021/01/29 09:28:26;;;;;;;10.18;6.38;;;1.40;99.90;;;;;;4855992;29;20504;-87
2021/01/29 09:30:56;;;;;;;9.23;7.35;;;1.40;99.90;;;;;;4829235;29;20064;-87
2021/01/29 09:33:56;;;;;;;4.38;3.28;;;1.40;99.90;;;;;;4844830;29;20069;-88
2021/01/29 09:36:50;;;;;;;12.97;7.20;;;1.30;99.90;;;;;;4856537;29;20045;-88
2021/01/29 09:39:28;;;;;;;7.90;5.15;;;1.40;99.90;;;;;;4856910;29;20109;-87
2021/01/29 09:41:54;;;;;;;9.63;7.03;;;1.30;99.90;;;;;;4842279;29;20046;-87
2021/01/29 09:44:28;;;;;;;10.80;7.65;;;1.30;99.90;;;;;;4850595;29;20485;-87
2021/01/29 09:46:58;;;;;;;10.90;7.28;;;1.30;99.90;;;;;;4854862;29;20071;-89
2021/01/29 09:49:27;;;;;;;15.82;8.10;;;1.40;99.90;;;;;;4855072;29;20441;-88
2021/01/29 09:51:59;;;;;;;11.10;6.03;;;1.40;99.90;;;;;;4839191;29;20131;-86
2021/01/29 09:54:46;;;;;;;10.45;6.50;;;1.40;99.90;;;;;;4855965;29;20037;-90
2021/01/29 09:57:17;;;;;;;12.13;7.38;;;1.40;99.90;;;;;;4828236;29;20058;-88
2021/01/29 10:00:05;;;;;;;15.57;8.82;;;1.40;99.90;;;;;;4855415;29;20045;-88
2021/01/29 10:02:44;;;;;;;9.43;5.35;;;1.40;99.90;;;;;;4828372;29;20240;-88
2021/01/29 10:05:16;;;;;;;17.58;7.82;;;1.50;99.90;;;;;;4857917;29;20037;-88
2021/01/29 10:07:48;;;;;;;12.38;8.88;;;1.40;99.90;;;;;;4855752;29;20106;-88
2021/01/29 10:10:30;;;;;;;15.32;10.07;;;1.40;99.90;;;;;;4859643;29;20048;-88
2021/01/29 10:13:14;;;;;;;11.82;8.43;;;1.40;99.90;;;;;;4857178;29;20052;-88
2021/01/29 10:15:41;;;;;;;17.45;8.02;;;1.40;99.90;;;;;;4858965;29;20041;-88
2021/01/29 10:18:23;;;;;;;13.98;8.48;;;1.40;99.90;;;;;;4859618;29;20132;-88
2021/01/29 10:20:52;;;;;;;13.57;8.25;;;1.40;99.90;;;;;;4857979;29;20492;-88
2021/01/29 10:23:57;;;;;;;15.18;7.50;;;1.40;99.90;;;;;;4850061;29;20388;-86
2021/01/29 10:26:34;;;;;;;10.93;8.18;;;1.50;99.90;;;;;;4840678;29;20061;-88
2021/01/29 10:29:06;;;;;;;16.13;9.00;;;1.50;99.90;;;;;;4861799;29;20064;-86
2021/01/29 10:32:05;;;;;;;23.88;10.18;;;1.50;99.90;;;;;;4843970;29;20053;-87
2021/01/29 10:34:33;;;;;;;12.98;8.75;;;1.50;99.90;;;;;;4859786;29;20148;-87
2021/01/29 10:37:32;;;;;;;12.75;8.00;;;1.50;99.90;;;;;;4860501;29;20075;-87
2021/01/29 10:40:15;;;;;;;18.15;8.85;;;1.50;99.90;;;;;;4835756;29;20193;-85
2021/01/29 10:42:51;;;;;;;12.93;8.93;;;1.50;99.90;;;;;;4860347;29;20137;-88
2021/01/29 10:45:40;;;;;;;15.20;8.73;;;1.50;99.90;;;;;;4850295;29;20037;-87
2021/01/29 10:48:38;;;;;;;18.92;9.98;;;1.40;99.90;;;;;;4858052;29;20053;-86
2021/01/29 10:51:10;;;;;;;12.90;7.53;;;1.50;99.90;;;;;;4825166;29;20144;-88
2021/01/29 10:53:36;;;;;;;11.60;6.75;;;1.40;99.90;;;;;;4860077;29;20048;-87
2021/01/29 10:56:13;;;;;;;15.35;9.30;;;1.40;99.90;;;;;;4859433;29;20053;-89
2021/01/29 10:58:41;;;;;;;13.30;8.73;;;1.40;99.90;;;;;;4858948;29;20041;-89
2021/01/29 11:01:28;;;;;;;14.80;7.75;;;1.40;99.90;;;;;;4859337;29;20057;-89
2021/01/29 11:04:04;;;;;;;9.93;6.68;;;1.50;99.90;;;;;;4857296;29;20052;-88
2021/01/29 11:06:40;;;;;;;8.60;6.00;;;1.50;99.90;;;;;;4851910;29;20041;-90
2021/01/29 11:09:14;;;;;;;8.73;6.05;;;1.60;99.90;;;;;;4848529;29;20888;-89
2021/01/29 11:11:46;;;;;;;14.65;7.07;;;1.60;99.90;;;;;;4842298;29;20041;-88
2021/01/29 11:14:30;;;;;;;12.82;8.32;;;1.60;99.90;;;;;;4857785;29;20488;-88
2021/01/29 11:17:18;;;;;;;15.77;8.23;;;1.70;99.90;;;;;;4857452;29;20050;-89
2021/01/29 11:19:49;;;;;;;11.65;7.32;;;1.70;99.90;;;;;;4853592;29;20404;-89
2021/01/29 11:22:35;;;;;;;17.92;9.68;;;1.70;99.90;;;;;;4858834;29;20048;-88
2021/01/29 11:25:14;;;;;;;14.98;8.02;;;1.80;99.90;;;;;;4856625;29;20143;-90
2021/01/29 11:27:51;;;;;;;14.80;9.40;;;1.90;99.90;;;;;;4841144;29;20067;-90
2021/01/29 11:30:29;;;;;;;11.48;8.00;;;1.90;99.90;;;;;;4858961;29;20150;-90
2021/01/29 11:32:58;;;;;;;14.07;7.88;;;1.90;99.90;;;;;;4856014;29;20072;-88
2021/01/29 11:36:15;;;;;;;11.70;7.88;;;2.00;99.90;;;;;;4854017;29;20393;-88
2021/01/29 11:38:50;;;;;;;12.55;7.45;;;1.90;99.90;;;;;;4803513;29;20088;-89
2021/01/29 11:41:30;;;;;;;10.63;8.27;;;1.90;99.90;;;;;;4797377;29;20050;-89
2021/01/29 11:44:09;;;;;;;11.30;7.20;;;1.90;99.90;;;;;;4836162;29;20492;-87
2021/01/29 11:46:51;;;;;;;9.68;6.72;;;1.90;99.90;;;;;;4860293;29;20045;-87
2021/01/29 11:49:30;;;;;;;15.25;7.63;;;2.00;99.90;;;;;;4854976;29;20081;-86
2021/01/29 11:52:18;;;;;;;16.23;7.95;;;1.90;99.90;;;;;;4855072;29;20497;-86
2021/01/29 11:55:19;;;;;;;14.40;8.02;;;2.00;99.90;;;;;;4856122;29;20133;-88
2021/01/29 11:57:54;;;;;;;9.93;6.15;;;1.90;99.90;;;;;;4852992;29;20396;-86
2021/01/29 12:00:39;;;;;;;8.30;6.63;;;1.90;99.90;;;;;;4855475;29;20045;-86
2021/01/29 12:03:30;;;;;;;11.93;6.68;;;1.90;99.90;;;;;;4834869;29;20062;-86
2021/01/29 12:06:14;;;;;;;14.05;7.57;;;1.90;99.90;;;;;;4854905;29;20378;-88
2021/01/29 12:09:01;;;;;;;12.07;7.95;;;2.00;99.90;;;;;;4857395;29;20468;-88
2021/01/29 12:11:37;;;;;;;16.45;9.70;;;2.00;99.90;;;;;;4845318;29;20126;-90
2021/01/29 12:14:12;;;;;;;17.58;9.90;;;2.00;99.90;;;;;;4856796;29;20041;-89
2021/01/29 12:16:38;;;;;;;11.10;8.35;;;2.00;99.90;;;;;;4857936;29;20048;-86
2021/01/29 12:19:07;;;;;;;20.13;11.07;;;2.00;99.90;;;;;;4856748;29;20331;-87
2021/01/29 12:21:51;;;;;;;23.10;11.85;;;2.10;99.90;;;;;;4857533;29;20052;-87
2021/01/29 12:24:36;;;;;;;13.38;9.05;;;2.00;99.90;;;;;;4851915;29;20048;-86
2021/01/29 12:27:20;;;;;;;8.27;6.82;;;2.00;99.90;;;;;;4852957;29;20061;-85
2021/01/29 12:29:52;;;;;;;15.55;9.55;;;2.00;99.90;;;;;;4855728;29;20084;-88
2021/01/29 12:32:20;;;;;;;20.60;11.60;;;2.00;99.90;;;;;;4857597;29;20049;-86
2021/01/29 12:35:09;;;;;;;16.80;11.13;;;2.00;99.90;;;;;;4856175;29;20053;-88
2021/01/29 12:37:58;;;;;;;13.70;10.75;;;2.00;99.90;;;;;;4827241;29;20053;-87
2021/01/29 12:41:12;;;;;;;14.00;9.68;;;2.10;99.90;;;;;;4846896;29;20049;-86
2021/01/29 12:43:42;;;;;;;16.85;11.88;;;2.10;99.90;;;;;;4762363;29;20047;-88
2021/01/29 12:46:40;;;;;;;;;;;2.10;99.90;;;;;;4856276;29;20037;-88
2021/01/29 12:49:16;;;;;;;15.35;9.82;;;2.10;99.90;;;;;;4833004;29;20471;-88
2021/01/29 12:51:52;;;;;;;9.32;6.93;;;2.10;99.90;;;;;;4855549;29;20060;-87
2021/01/29 12:54:42;;;;;;;14.20;9.95;;;2.10;99.90;;;;;;4855460;29;20120;-87
2021/01/29 12:57:19;;;;;;;10.30;8.50;;;2.00;99.90;;;;;;4849827;29;20472;-87
2021/01/29 12:59:59;;;;;;;13.77;11.35;;;2.00;99.90;;;;;;5132719;27;20891;-86
2021/01/29 13:02:54;;;;;;;9.55;7.95;;;2.00;99.90;;;;;;5124109;27;20034;-87
2021/01/29 13:05:43;;;;;;;14.57;10.77;;;2.00;99.90;;;;;;5121889;27;20047;-87
2021/01/29 13:08:49;;;;;;;13.73;8.85;;;2.00;99.90;;;;;;5117796;28;20455;-87
2021/01/29 13:11:37;;;;;;;11.48;8.10;;;2.00;99.90;;;;;;5126554;28;20050;-87
2021/01/29 13:14:16;;;;;;;11.50;9.32;;;2.00;99.90;;;;;;5125291;28;20047;-87
2021/01/29 13:17:13;;;;;;;12.75;8.45;;;2.00;99.90;;;;;;5121858;28;20093;-87
2021/01/29 13:19:39;;;;;;;16.05;10.02;;;2.00;99.90;;;;;;5126370;28;20054;-87
2021/01/29 13:22:17;;;;;;;13.68;10.20;;;2.00;99.90;;;;;;5126412;27;20119;-87
2021/01/29 13:24:43;;;;;;;17.77;9.88;;;2.00;99.90;;;;;;5126792;28;20078;-87
2021/01/29 13:27:15;;;;;;;12.63;9.23;;;2.00;99.90;;;;;;5124373;28;20066;-87
2021/01/29 13:29:41;;;;;;;12.18;8.27;;;2.00;99.90;;;;;;5125809;28;20039;-87
2021/01/29 13:32:36;;;;;;;8.93;7.00;;;2.00;99.90;;;;;;5126179;28;20075;-87
2021/01/29 13:35:07;;;;;;;10.30;6.35;;;2.00;99.90;;;;;;5124662;28;20039;-87
2021/01/29 13:37:33;;;;;;;15.00;10.13;;;1.90;99.90;;;;;;5126158;27;20043;-87
2021/01/29 13:40:21;;;;;;;11.90;9.07;;;1.90;99.90;;;;;;5125205;27;20043;-87
2021/01/29 13:42:48;;;;;;;10.88;7.55;;;1.90;99.90;;;;;;5125885;28;20043;-86
2021/01/29 13:45:23;;;;;;;11.15;8.50;;;1.90;99.90;;;;;;5125937;27;20082;-88
2021/01/29 13:47:59;;;;;;;12.23;8.95;;;1.80;99.90;;;;;;5125761;28;20047;-87
2021/01/29 13:50:36;;;;;;;14.32;9.98;;;1.90;99.90;;;;;;5125726;28;20114;-87
2021/01/29 13:53:12;;;;;;;10.90;8.25;;;1.80;99.90;;;;;;5125199;27;20098;-87
2021/01/29 13:55:49;;;;;;;12.95;9.27;;;1.80;99.90;;;;;;5125549;28;20059;-88